Moorhead, MS (38761)

7:36 AM CDT on July 29, 2016 (GMT -0500)
Bmpproperties | | Change Station

Elev 105 ft 33.52 °N, 90.42 °W | Updated 7 minutes ago

Mostly Cloudy
Mostly Cloudy
74.3 °F
Feels Like 73 °F
N
3.7
Wind Variable Wind from West

Today
High -- | Low -- °F
--% Chance of Precip.
Yesterday
High -- | Low -- °F
Precip. -- in
Pressure 30.00 in
Visibility 10.0 miles
Clouds Mostly Cloudy 800 ft
Mostly Cloudy 6000 ft
Heat Index 73 °F
Dew Point 70 °F
Humidity 88%
Rainfall 0.00 in
Snow Depth Not available.
6:12 AM 8:03 PM
Waning Crescent, 22% visible
METAR KGWO 291153Z AUTO 21003KT 10SM BKN008 BKN060 23/22 A3001 RMK AO2 CIG 004V011 SLP159 60000 70036 T02330217 10233 20233 53005
Pressure 30.00 in
Visibility 10.0 miles
Clouds Mostly Cloudy 800 ft
Mostly Cloudy 6000 ft
Heat Index 73 °F
Dew Point 70 °F
Humidity 88%
Rainfall 0.00 in
Snow Depth Not available.
6:12 AM 8:03 PM
Waning Crescent, 22% visible
METAR KGWO 291153Z AUTO 21003KT 10SM BKN008 BKN060 23/22 A3001 RMK AO2 CIG 004V011 SLP159 60000 70036 T02330217 10233 20233 53005

10-Day Weather Forecast

Almanac

Astronomy

Jul. 29, 2016 Rise Set
Actual Time
Civil Twilight
Nautical Twilight
Astronomical Twilight
Moon
Length of Visible Light
Length of Day
Tomorrow will be .
, % of the Moon is Illuminated

Today's Extremes

State Highs State Lows

Community

WunderPhotos

Upload Photos

1,928,335 photos uploaded!

WunderBlog® & News

Nearby

Air Quality

  Air Quality AQ Index Pollutant
Not available.

Snow Depth

Station Depth Elevation

Earthquake Activity

City Distance Mag. Time & Date
Minimum magnitude displayed is 2.5.

Coastal Water Temperatures

Place Temperature

Stations

Nearby Weather Stations

Station Location Temp. Windchill Dew Point Humidity Wind Precip. Elev Updated Type
                   

Watches & Warnings

There are currently no watches in effect.